Time;durP1;ratioP1;P1;durP2;ratioP2;P2;SDS_P1;SDS_P2;PMS_P1;PMS_P2;Temp;Humidity;BMP_temperature;BMP_pressure;BME280_temperature;BME280_humidity;BME280_pressure;Samples;Min_cycle;Max_cycle;Signal;HPM_P1;HPM_P2
2021/05/08 00:00:50;;;;;;;6.20;4.60;;;;;;;18.70;57.86;99861.63;2071668;28;20060;-56
2021/05/08 00:01:51;;;;;;;5.97;4.73;;;;;;;18.70;57.70;99861.63;2072118;28;20038;-56
2021/05/08 00:02:52;;;;;;;5.38;4.30;;;;;;;18.68;57.68;99869.13;2071872;28;20034;-56
2021/05/08 00:03:52;;;;;;;6.37;4.77;;;;;;;18.69;57.88;99859.94;2073074;28;20140;-56
2021/05/08 00:04:52;;;;;;;5.80;4.70;;;;;;;18.69;57.74;99859.94;2072523;28;20087;-56
2021/05/08 00:05:53;;;;;;;6.23;4.47;;;;;;;18.68;57.88;99863.66;2070232;28;20378;-56
2021/05/08 00:06:53;;;;;;;6.30;4.17;;;;;;;18.69;57.74;99862.66;2071686;28;20392;-56
2021/05/08 00:07:55;;;;;;;4.87;4.10;;;;;;;18.70;57.90;99856.19;2069368;28;20049;-56
2021/05/08 00:08:55;;;;;;;6.20;4.60;;;;;;;18.68;57.84;99858.19;2068747;28;20037;-56
2021/05/08 00:09:55;;;;;;;4.90;4.23;;;;;;;18.71;57.65;99860.63;2070092;28;20125;-56
2021/05/08 00:10:56;;;;;;;6.60;4.43;;;;;;;18.69;57.68;99856.31;2072250;28;20034;-56
2021/05/08 00:11:57;;;;;;;5.50;4.37;;;;;;;18.68;57.77;99852.72;2072570;28;20052;-57
2021/05/08 00:12:57;;;;;;;5.20;4.05;;;;;;;18.70;57.84;99855.31;2071810;28;20822;-56
2021/05/08 00:13:58;;;;;;;7.20;4.60;;;;;;;18.69;57.85;99853.59;2072709;28;20060;-56
2021/05/08 00:14:58;;;;;;;6.13;4.40;;;;;;;18.69;57.87;99849.00;2070667;28;20190;-56
2021/05/08 00:15:59;;;;;;;5.03;4.10;;;;;;;18.69;57.67;99848.13;2071919;28;20042;-57
2021/05/08 00:17:00;;;;;;;4.85;4.15;;;;;;;18.68;57.85;99852.72;2072505;28;20030;-56
2021/05/08 00:18:00;;;;;;;5.30;4.20;;;;;;;18.69;57.69;99849.00;2072032;28;20086;-56
2021/05/08 00:19:01;;;;;;;6.20;4.17;;;;;;;18.68;57.75;99847.28;2071185;28;20506;-56
2021/05/08 00:20:08;;;;;;;6.75;4.60;;;;;;;18.69;57.74;99848.13;2069417;28;20030;-57
2021/05/08 00:21:08;;;;;;;4.55;3.90;;;;;;;18.69;57.75;99839.94;2068871;28;20037;-57
2021/05/08 00:22:09;;;;;;;5.27;4.17;;;;;;;18.69;57.83;99834.47;2069842;28;20292;-57
2021/05/08 00:23:09;;;;;;;5.40;3.90;;;;;;;18.69;57.86;99842.66;2070744;28;20112;-56
2021/05/08 00:24:10;;;;;;;5.30;4.10;;;;;;;18.69;57.71;99839.94;2072410;28;20125;-56
2021/05/08 00:25:11;;;;;;;5.27;4.23;;;;;;;18.69;57.68;99838.09;2070940;28;20118;-56
2021/05/08 00:26:11;;;;;;;6.10;3.90;;;;;;;18.69;57.62;99843.56;2072506;28;20718;-56
2021/05/08 00:27:12;;;;;;;5.93;4.10;;;;;;;18.68;57.78;99841.81;2072198;28;20331;-56
2021/05/08 00:28:12;;;;;;;5.50;4.10;;;;;;;18.69;57.73;99846.28;2071557;28;20081;-56
2021/05/08 00:29:13;;;;;;;6.00;4.70;;;;;;;18.70;57.74;99844.41;2071629;28;20037;-56
2021/05/08 00:30:14;;;;;;;5.43;4.00;;;;;;;18.69;57.85;99843.56;2072039;28;20131;-56
2021/05/08 00:31:15;;;;;;;5.50;4.18;;;;;;;18.69;57.61;99843.56;2072122;28;20053;-56
2021/05/08 00:32:15;;;;;;;8.10;4.57;;;;;;;18.69;57.66;99832.63;2072714;28;20347;-56
2021/05/08 00:33:16;;;;;;;5.97;4.67;;;;;;;18.69;57.65;99839.94;2072072;28;20155;-56
2021/05/08 00:34:16;;;;;;;7.37;3.73;;;;;;;18.68;57.71;99839.09;2069962;28;20376;-57
2021/05/08 00:35:17;;;;;;;6.37;4.10;;;;;;;18.68;57.70;99840.97;2070279;28;20324;-56
2021/05/08 00:36:17;;;;;;;5.17;3.73;;;;;;;18.68;57.66;99830.91;2072476;28;20185;-56
2021/05/08 00:37:17;;;;;;;5.83;4.40;;;;;;;18.68;57.91;99840.97;2070994;28;20033;-56
2021/05/08 00:38:18;;;;;;;8.50;4.57;;;;;;;18.68;57.71;99830.03;2069966;28;20128;-54
2021/05/08 00:39:18;;;;;;;5.60;4.50;;;;;;;18.67;57.78;99831.91;2063340;28;20458;-53
2021/05/08 00:40:19;;;;;;;5.70;4.30;;;;;;;18.67;57.78;99823.72;2058765;28;20460;-54
2021/05/08 00:41:19;;;;;;;6.33;4.80;;;;;;;18.67;57.64;99823.72;2072248;28;20026;-54
2021/05/08 00:42:20;;;;;;;5.23;4.10;;;;;;;18.67;57.71;99834.66;2072316;28;20160;-54
2021/05/08 00:43:20;;;;;;;5.37;4.33;;;;;;;18.68;57.76;99836.34;2071577;28;20471;-55
2021/05/08 00:44:20;;;;;;;5.90;4.13;;;;;;;18.67;57.75;99834.66;2070395;28;20296;-55
2021/05/08 00:45:21;;;;;;;5.70;3.77;;;;;;;18.67;57.84;99831.91;2062359;28;20033;-56
2021/05/08 00:46:23;;;;;;;5.57;4.03;;;;;;;18.66;57.67;99835.66;2063241;28;20538;-56
2021/05/08 00:47:24;;;;;;;6.78;4.05;;;;;;;18.66;57.81;99822.00;2070518;28;20343;-58
2021/05/08 00:48:28;;;;;;;5.23;4.00;;;;;;;18.66;57.67;99827.44;2072064;28;20045;-56
2021/05/08 00:49:29;;;;;;;4.82;4.00;;;;;;;18.66;57.76;99822.00;2071430;28;20131;-56
2021/05/08 00:50:32;;;;;;;4.78;3.85;;;;;;;18.66;57.68;99826.59;2071878;28;20089;-56
2021/05/08 00:51:33;;;;;;;5.32;4.35;;;;;;;18.67;57.69;99829.19;2069344;28;20034;-54
2021/05/08 00:52:33;;;;;;;5.10;4.00;;;;;;;18.67;57.65;99828.31;2068430;28;20348;-54
2021/05/08 00:53:34;;;;;;;5.30;4.00;;;;;;;18.66;57.84;99832.91;2071825;28;20044;-54
2021/05/08 00:54:34;;;;;;;4.53;3.50;;;;;;;18.67;57.78;99831.03;2071970;28;20104;-56
2021/05/08 00:55:36;;;;;;;5.23;3.93;;;;;;;18.66;57.81;99832.91;2071913;28;20091;-54
2021/05/08 00:56:37;;;;;;;5.68;4.05;;;;;;;18.67;57.69;99828.31;2071843;28;20436;-54
2021/05/08 00:57:37;;;;;;;4.87;3.70;;;;;;;18.67;57.95;99822.84;2072489;28;20029;-54
2021/05/08 00:58:38;;;;;;;4.93;3.93;;;;;;;18.67;57.79;99822.84;2071458;28;20515;-54
2021/05/08 00:59:39;;;;;;;5.27;4.10;;;;;;;18.65;57.69;99825.75;2071784;28;20417;-53
2021/05/08 01:00:39;;;;;;;6.17;4.40;;;;;;;18.67;57.80;99831.03;2062658;28;20285;-54
2021/05/08 01:01:40;;;;;;;5.50;4.00;;;;;;;18.66;57.58;99826.59;2059899;28;20283;-54
2021/05/08 01:02:41;;;;;;;6.20;3.80;;;;;;;18.66;57.78;99829.34;2070858;28;20045;-54
2021/05/08 01:03:45;;;;;;;5.57;4.00;;;;;;;18.66;57.78;99822.00;2071293;28;20018;-54
2021/05/08 01:04:46;;;;;;;5.78;3.92;;;;;;;18.67;57.67;99834.66;2071197;28;20040;-55
2021/05/08 01:05:46;;;;;;;5.70;4.37;;;;;;;18.66;57.85;99826.59;2071480;28;20061;-54
2021/05/08 01:06:46;;;;;;;6.23;4.17;;;;;;;18.66;57.66;99829.34;2070980;28;20033;-54
2021/05/08 01:07:47;;;;;;;6.50;3.70;;;;;;;18.65;57.73;99831.22;2072543;28;20036;-53
2021/05/08 01:08:48;;;;;;;4.57;4.17;;;;;;;18.64;57.81;99827.63;2070113;28;20113;-54
2021/05/08 01:09:49;;;;;;;5.10;4.17;;;;;;;18.65;57.79;99831.22;2072005;28;20076;-54
2021/05/08 01:10:51;;;;;;;5.30;3.95;;;;;;;18.64;57.87;99830.34;2070934;28;20424;-54
2021/05/08 01:11:51;;;;;;;5.93;3.83;;;;;;;18.65;57.73;99825.75;2070680;28;20036;-54
2021/05/08 01:12:52;;;;;;;5.10;3.47;;;;;;;18.65;57.65;99825.75;2071661;28;20108;-54
2021/05/08 01:13:53;;;;;;;5.90;3.80;;;;;;;18.66;57.90;99832.06;2069830;28;20033;-54
2021/05/08 01:14:53;;;;;;;5.53;4.00;;;;;;;18.65;57.58;99820.28;2071093;28;20038;-54
2021/05/08 01:15:55;;;;;;;5.40;4.37;;;;;;;18.64;57.78;99818.56;2071594;28;20021;-54
2021/05/08 01:16:55;;;;;;;6.32;4.18;;;;;;;18.64;57.65;99819.44;2071488;28;20030;-55
2021/05/08 01:17:56;;;;;;;4.83;3.87;;;;;;;18.66;57.62;99815.69;2071357;28;20400;-55
2021/05/08 01:18:58;;;;;;;5.50;4.10;;;;;;;18.66;57.66;99821.13;2070556;28;20021;-54
2021/05/08 01:19:59;;;;;;;;;;;;;;;18.60;57.92;99818.00;2072038;28;20570;-54
2021/05/08 01:21:00;;;;;;;6.40;4.07;;;;;;;18.61;57.91;99819.72;2071262;28;19913;-54
2021/05/08 01:22:02;;;;;;;4.97;3.83;;;;;;;18.62;57.82;99820.59;2068943;28;20029;-55
2021/05/08 01:23:02;;;;;;;4.88;3.72;;;;;;;18.62;57.94;99820.59;2072324;28;20033;-54
2021/05/08 01:24:04;;;;;;;4.77;4.07;;;;;;;18.61;57.69;99824.31;2070479;28;20386;-54
2021/05/08 01:25:09;;;;;;;4.30;3.58;;;;;;;18.61;57.81;99824.31;2071859;28;20268;-54
2021/05/08 01:26:09;;;;;;;5.18;3.85;;;;;;;18.62;57.73;99815.16;2067560;28;20260;-55
2021/05/08 01:27:10;;;;;;;5.03;4.20;;;;;;;18.62;57.90;99820.59;2071654;28;20064;-56
2021/05/08 01:28:10;;;;;;;5.27;3.80;;;;;;;18.62;57.68;99820.59;2069600;28;20057;-56
2021/05/08 01:29:11;;;;;;;5.30;3.73;;;;;;;18.62;57.91;99809.69;2070875;28;20412;-56
2021/05/08 01:30:13;;;;;;;5.20;3.67;;;;;;;18.63;57.65;99816.84;2069764;28;20032;-55
2021/05/08 01:31:14;;;;;;;5.25;3.80;;;;;;;18.64;57.75;99824.00;2070881;28;20052;-56
2021/05/08 01:32:14;;;;;;;6.17;4.07;;;;;;;18.64;57.84;99810.38;2071770;28;20156;-56
2021/05/08 01:33:15;;;;;;;3.90;3.17;;;;;;;18.63;57.74;99812.25;2071793;28;20026;-56
2021/05/08 01:34:16;;;;;;;5.07;4.00;;;;;;;18.63;57.67;99808.66;2071591;28;20022;-56
2021/05/08 01:35:16;;;;;;;4.03;3.20;;;;;;;18.63;57.81;99811.38;2072250;28;20033;-56
2021/05/08 01:36:17;;;;;;;4.73;3.80;;;;;;;18.62;57.64;99815.16;2072002;28;20116;-56
2021/05/08 01:37:17;;;;;;;4.23;3.70;;;;;;;18.61;57.81;99814.25;2068919;28;20030;-57
2021/05/08 01:38:18;;;;;;;6.60;3.90;;;;;;;18.62;57.84;99804.22;2072058;28;20033;-56
2021/05/08 01:39:18;;;;;;;4.43;3.63;;;;;;;18.62;57.70;99794.16;2070597;28;20071;-56
2021/05/08 01:40:26;;;;;;;6.63;3.73;;;;;;;18.61;57.66;99791.56;2070895;28;20030;-56
2021/05/08 01:41:27;;;;;;;4.40;3.60;;;;;;;18.62;57.63;99787.84;2071643;28;20045;-56
2021/05/08 01:42:27;;;;;;;5.73;4.23;;;;;;;18.63;57.59;99789.53;2071604;28;20040;-56
2021/05/08 01:43:28;;;;;;;5.93;4.03;;;;;;;18.61;57.77;99786.97;2071911;28;20065;-56
2021/05/08 01:44:29;;;;;;;5.90;3.37;;;;;;;18.62;57.81;99782.38;2071361;28;20087;-56
2021/05/08 01:45:29;;;;;;;3.63;3.20;;;;;;;18.60;57.70;99779.78;2071065;28;20045;-56
2021/05/08 01:46:30;;;;;;;6.43;4.20;;;;;;;18.61;57.66;99784.22;2072448;28;20037;-56
2021/05/08 01:47:30;;;;;;;3.83;3.30;;;;;;;18.62;57.67;99774.19;2070999;28;20065;-56
2021/05/08 01:48:31;;;;;;;5.83;3.80;;;;;;;18.60;57.77;99779.78;2071335;28;20465;-56
2021/05/08 01:49:31;;;;;;;5.10;3.97;;;;;;;18.61;57.77;99776.03;2072004;28;20038;-56
2021/05/08 01:50:32;;;;;;;4.93;3.67;;;;;;;18.61;57.74;99777.91;2062164;28;20364;-56
2021/05/08 01:51:32;;;;;;;7.20;3.57;;;;;;;18.61;57.78;99783.38;2063646;28;20030;-56
2021/05/08 01:52:34;;;;;;;4.87;3.90;;;;;;;18.61;57.74;99781.50;2067391;28;20037;-56
2021/05/08 01:53:34;;;;;;;4.57;3.38;;;;;;;18.61;57.83;99781.50;2071310;28;20425;-56
2021/05/08 01:54:35;;;;;;;6.00;3.70;;;;;;;18.60;57.65;99788.00;2071787;28;20428;-56
2021/05/08 01:55:35;;;;;;;4.47;3.80;;;;;;;18.61;57.63;99786.09;2071240;28;20153;-56
2021/05/08 01:56:38;;;;;;;4.23;3.17;;;;;;;18.61;57.77;99786.09;2071360;28;20087;-56
2021/05/08 01:57:40;;;;;;;5.88;3.63;;;;;;;18.61;57.50;99786.97;2071838;28;20037;-56
2021/05/08 01:58:41;;;;;;;4.97;3.70;;;;;;;18.60;57.74;99781.69;2070380;28;20050;-56
2021/05/08 01:59:41;;;;;;;4.20;3.40;;;;;;;18.60;57.79;99778.94;2059998;28;20037;-56
2021/05/08 02:00:44;;;;;;;4.90;3.10;;;;;;;18.59;57.73;99778.09;2062432;28;20141;-56
2021/05/08 02:01:44;;;;;;;4.15;3.17;;;;;;;18.61;57.76;99778.78;2068702;28;20100;-56
2021/05/08 02:02:46;;;;;;;6.33;4.33;;;;;;;18.60;57.66;99778.94;2066564;28;20794;-56
2021/05/08 02:03:47;;;;;;;4.68;3.67;;;;;;;18.60;57.73;99779.78;2070735;28;20030;-56
2021/05/08 02:04:48;;;;;;;4.43;3.57;;;;;;;18.60;57.74;99778.94;2072083;28;20026;-55
2021/05/08 02:05:48;;;;;;;5.10;3.78;;;;;;;18.60;57.61;99789.88;2070859;28;20848;-56
2021/05/08 02:06:52;;;;;;;4.20;3.53;;;;;;;18.59;57.68;99772.63;2071196;28;20045;-57
2021/05/08 02:07:52;;;;;;;4.85;3.50;;;;;;;18.60;57.66;99773.50;2072465;28;20072;-56
2021/05/08 02:08:53;;;;;;;3.77;3.23;;;;;;;18.60;57.57;99773.50;2071332;28;20026;-56
2021/05/08 02:09:53;;;;;;;4.53;3.47;;;;;;;18.60;57.59;99771.59;2069394;28;20025;-56
2021/05/08 02:10:54;;;;;;;7.07;3.47;;;;;;;18.59;57.66;99767.19;2070758;28;20065;-56
2021/05/08 02:11:54;;;;;;;4.23;3.33;;;;;;;18.59;57.70;99772.63;2071718;28;20041;-56
2021/05/08 02:12:56;;;;;;;5.23;3.73;;;;;;;18.59;57.49;99769.91;2071850;28;20030;-56
2021/05/08 02:13:56;;;;;;;;;;;;;;;18.56;57.72;99778.38;2072114;28;20025;-56
2021/05/08 02:14:57;;;;;;;4.70;3.58;;;;;;;18.56;57.64;99769.34;2071413;28;20304;-55
2021/05/08 02:15:57;;;;;;;4.27;3.40;;;;;;;18.56;57.79;99769.34;2071360;28;20033;-56
2021/05/08 02:16:58;;;;;;;4.73;3.77;;;;;;;18.56;57.67;99766.59;2071610;28;20161;-56
2021/05/08 02:17:58;;;;;;;4.30;3.53;;;;;;;18.58;57.80;99770.03;2071587;28;20120;-56
2021/05/08 02:18:59;;;;;;;3.93;3.43;;;;;;;18.58;57.76;99772.78;2071236;28;20026;-56
2021/05/08 02:20:00;;;;;;;5.37;3.70;;;;;;;18.58;57.79;99770.91;2070315;28;20374;-56
2021/05/08 02:21:00;;;;;;;5.03;3.50;;;;;;;18.58;57.68;99770.03;2070824;28;20381;-57
2021/05/08 02:22:01;;;;;;;3.50;3.07;;;;;;;18.57;57.63;99768.31;2071006;28;20026;-56
2021/05/08 02:23:04;;;;;;;4.70;3.67;;;;;;;18.57;57.73;99768.31;2067830;28;20026;-56
2021/05/08 02:24:05;;;;;;;5.22;3.55;;;;;;;18.57;57.59;99768.31;2070247;28;20344;-57
2021/05/08 02:25:08;;;;;;;6.47;4.10;;;;;;;18.57;57.64;99771.03;2071155;28;20030;-56
2021/05/08 02:26:08;;;;;;;4.50;3.17;;;;;;;18.57;57.64;99771.03;2070214;28;20037;-56
2021/05/08 02:27:09;;;;;;;4.07;3.40;;;;;;;18.58;57.64;99759.13;2071692;28;20036;-56
2021/05/08 02:28:09;;;;;;;4.60;3.27;;;;;;;18.58;57.87;99764.59;2071649;28;20033;-56
2021/05/08 02:29:10;;;;;;;5.20;3.87;;;;;;;18.57;57.78;99760.13;2070826;28;20034;-56
2021/05/08 02:30:13;;;;;;;3.93;3.27;;;;;;;18.56;57.76;99755.69;2071004;28;20452;-57
2021/05/08 02:31:14;;;;;;;5.93;3.45;;;;;;;18.56;57.72;99758.41;2070586;28;20321;-55
2021/05/08 02:32:14;;;;;;;5.33;3.50;;;;;;;18.57;57.65;99757.38;2068024;28;20132;-56
2021/05/08 02:33:14;;;;;;;5.17;3.37;;;;;;;18.57;57.60;99763.75;2069190;28;20030;-56
2021/05/08 02:34:15;;;;;;;3.97;2.80;;;;;;;18.58;57.71;99759.13;2071206;28;20437;-56
2021/05/08 02:35:17;;;;;;;4.17;3.43;;;;;;;18.58;57.70;99756.41;2070319;28;20033;-56
2021/05/08 02:36:17;;;;;;;4.45;3.20;;;;;;;18.58;57.54;99761.84;2070800;28;20120;-56
2021/05/08 02:37:18;;;;;;;4.23;3.10;;;;;;;18.56;57.59;99755.69;2071529;28;20125;-56
2021/05/08 02:38:18;;;;;;;4.73;3.30;;;;;;;18.55;57.80;99757.56;2071987;28;20029;-56
2021/05/08 02:39:19;;;;;;;8.53;4.20;;;;;;;18.57;57.64;99757.38;2071068;28;20233;-56
2021/05/08 02:40:40;;;;;;;4.97;3.50;;;;;;;18.56;57.83;99755.69;2071384;28;20034;-56
2021/05/08 02:41:40;;;;;;;4.95;3.22;;;;;;;18.54;57.60;99752.25;2071487;28;20944;-56
2021/05/08 02:42:41;;;;;;;4.40;3.37;;;;;;;18.56;57.78;99752.97;2072122;28;20033;-56
2021/05/08 02:43:42;;;;;;;4.00;3.00;;;;;;;18.56;57.76;99752.97;2071532;28;20026;-57
2021/05/08 02:44:42;;;;;;;4.53;3.50;;;;;;;18.55;57.78;99754.84;2071066;28;20352;-56
2021/05/08 02:45:43;;;;;;;5.63;3.87;;;;;;;18.55;57.72;99754.84;2070241;28;20141;-56
2021/05/08 02:46:43;;;;;;;3.87;3.37;;;;;;;18.55;57.58;99749.38;2071421;28;20053;-56
2021/05/08 02:47:46;;;;;;;4.37;3.20;;;;;;;18.55;57.79;99745.78;2067531;28;20463;-56
2021/05/08 02:48:46;;;;;;;5.95;4.32;;;;;;;18.57;57.59;99749.19;2070323;28;20416;-56
2021/05/08 02:49:49;;;;;;;5.10;4.00;;;;;;;18.56;57.63;99747.50;2067327;28;20029;-56
2021/05/08 02:50:49;;;;;;;5.55;3.30;;;;;;;18.56;57.52;99740.16;2067017;28;20034;-56
2021/05/08 02:51:50;;;;;;;4.00;3.17;;;;;;;18.56;57.49;99739.31;2069116;28;20068;-56
2021/05/08 02:52:51;;;;;;;4.90;3.83;;;;;;;18.56;57.66;99747.50;2069576;28;20040;-56
2021/05/08 02:53:51;;;;;;;5.53;3.67;;;;;;;18.55;57.57;99743.91;2072947;28;20381;-56
2021/05/08 02:54:52;;;;;;;4.63;3.40;;;;;;;18.56;57.67;99744.78;2069386;28;20042;-56
2021/05/08 02:55:52;;;;;;;4.10;3.17;;;;;;;18.56;57.62;99744.78;2071075;28;20030;-56
2021/05/08 02:56:52;;;;;;;4.07;3.10;;;;;;;18.55;57.78;99743.91;2073176;28;20033;-56
2021/05/08 02:57:53;;;;;;;4.07;3.67;;;;;;;18.56;57.61;99745.63;2072279;28;20196;-56
2021/05/08 02:58:53;;;;;;;3.97;3.43;;;;;;;18.57;57.70;99741.00;2072905;28;20045;-56
2021/05/08 02:59:54;;;;;;;4.63;3.13;;;;;;;18.56;57.65;99742.03;2072336;28;20603;-56
2021/05/08 03:00:54;;;;;;;3.87;3.10;;;;;;;18.56;57.56;99750.22;2072832;28;20033;-56
2021/05/08 03:01:54;;;;;;;4.80;3.60;;;;;;;18.56;57.72;99744.78;2072791;28;20140;-56
2021/05/08 03:02:55;;;;;;;5.40;3.40;;;;;;;18.56;57.66;99739.31;2072841;28;20041;-56
2021/05/08 03:03:55;;;;;;;4.10;3.40;;;;;;;18.55;57.82;99743.06;2072982;28;20030;-56
2021/05/08 03:04:56;;;;;;;4.60;3.27;;;;;;;18.56;57.79;99733.84;2071470;28;20032;-57
2021/05/08 03:05:56;;;;;;;6.03;3.37;;;;;;;18.55;57.64;99734.88;2070762;28;20033;-56
2021/05/08 03:06:57;;;;;;;4.50;3.50;;;;;;;18.55;57.54;99732.16;2067230;28;20030;-56
2021/05/08 03:07:57;;;;;;;4.60;3.33;;;;;;;18.54;57.60;99725.81;2071843;28;20337;-56
2021/05/08 03:08:57;;;;;;;3.57;2.90;;;;;;;18.54;57.65;99731.25;2072187;28;20041;-56
2021/05/08 03:09:58;;;;;;;4.60;3.27;;;;;;;18.53;57.76;99729.56;2067620;28;20108;-56
2021/05/08 03:10:58;;;;;;;4.70;3.60;;;;;;;18.53;57.81;99728.72;2071946;28;20038;-56
2021/05/08 03:12:01;;;;;;;6.53;3.40;;;;;;;18.53;57.76;99739.63;2073302;28;20488;-56
2021/05/08 03:13:01;;;;;;;5.00;3.60;;;;;;;18.53;57.60;99732.28;2069367;28;20137;-56
2021/05/08 03:14:02;;;;;;;5.33;3.37;;;;;;;18.54;57.59;99735.88;2072913;28;20030;-56
2021/05/08 03:15:04;;;;;;;3.67;3.27;;;;;;;18.54;57.73;99735.88;2072812;28;20025;-57
2021/05/08 03:16:05;;;;;;;4.63;3.58;;;;;;;18.54;57.75;99730.41;2071894;28;20061;-56
2021/05/08 03:17:06;;;;;;;4.63;3.20;;;;;;;18.54;57.77;99735.88;2073348;28;20069;-55
2021/05/08 03:18:06;;;;;;;3.20;2.87;;;;;;;18.53;57.69;99728.72;2072743;28;20486;-56
2021/05/08 03:19:06;;;;;;;3.93;2.97;;;;;;;18.54;57.66;99735.88;2072810;28;20452;-56
2021/05/08 03:20:07;;;;;;;4.20;3.27;;;;;;;18.53;57.90;99731.44;2072710;28;20068;-57
2021/05/08 03:21:08;;;;;;;3.53;2.90;;;;;;;18.54;57.66;99733.16;2068315;28;20679;-56
2021/05/08 03:22:09;;;;;;;4.87;3.57;;;;;;;18.54;57.64;99724.94;2071029;28;20037;-56
2021/05/08 03:23:09;;;;;;;3.53;2.97;;;;;;;18.54;57.71;99733.16;2069256;28;20037;-56
2021/05/08 03:24:10;;;;;;;3.30;2.97;;;;;;;18.54;57.83;99731.25;2073315;28;20424;-56
2021/05/08 03:25:11;;;;;;;4.90;3.37;;;;;;;18.54;57.58;99722.22;2073068;28;20081;-56
2021/05/08 03:26:11;;;;;;;3.97;2.93;;;;;;;18.53;57.68;99728.72;2073204;28;20066;-55
2021/05/08 03:27:12;;;;;;;4.10;3.20;;;;;;;18.53;57.72;99724.09;2071094;28;20376;-56
2021/05/08 03:28:12;;;;;;;4.30;3.13;;;;;;;18.51;57.65;99720.66;2072498;28;20392;-56
2021/05/08 03:29:13;;;;;;;4.07;2.43;;;;;;;18.52;57.77;99722.41;2072922;28;20041;-56
2021/05/08 03:30:14;;;;;;;4.03;2.90;;;;;;;18.52;57.79;99722.41;2073274;28;20358;-56
2021/05/08 03:31:14;;;;;;;4.03;3.13;;;;;;;18.51;57.79;99720.66;2072054;28;20101;-56
2021/05/08 03:32:15;;;;;;;3.50;2.73;;;;;;;18.52;57.75;99721.53;2073270;28;20030;-56
2021/05/08 03:33:15;;;;;;;4.70;3.33;;;;;;;18.51;57.79;99708.91;2070837;28;20401;-56
2021/05/08 03:34:15;;;;;;;3.27;2.67;;;;;;;18.53;57.84;99709.59;2072939;28;20074;-58
2021/05/08 03:35:16;;;;;;;3.80;3.13;;;;;;;18.53;57.86;99712.34;2072996;28;20363;-56
2021/05/08 03:36:17;;;;;;;3.47;3.03;;;;;;;18.52;57.87;99710.59;2072556;28;20026;-56
2021/05/08 03:37:17;;;;;;;4.37;3.70;;;;;;;18.54;57.80;99714.03;2070458;28;20081;-56
2021/05/08 03:38:18;;;;;;;4.83;3.50;;;;;;;18.52;57.67;99707.88;2073003;28;20093;-56
2021/05/08 03:39:18;;;;;;;5.33;3.53;;;;;;;18.53;57.65;99712.34;2072051;28;20060;-56
2021/05/08 03:40:19;;;;;;;3.37;3.07;;;;;;;18.51;57.69;99708.91;2072722;28;20033;-56
2021/05/08 03:41:20;;;;;;;4.63;3.40;;;;;;;18.51;57.79;99703.44;2073128;28;20033;-56
2021/05/08 03:42:21;;;;;;;;;;;;;;;18.45;57.98;99698.59;2071695;28;20110;-56
2021/05/08 03:43:21;;;;;;;3.20;2.70;;;;;;;18.47;57.98;99704.75;2072256;28;20407;-56
2021/05/08 03:44:22;;;;;;;5.63;3.17;;;;;;;18.48;57.86;99703.75;2072700;28;20034;-56
2021/05/08 03:45:22;;;;;;;4.03;2.87;;;;;;;18.48;57.72;99699.16;2071270;28;20442;-56
2021/05/08 03:46:23;;;;;;;4.57;2.90;;;;;;;18.48;57.83;99703.75;2072895;28;20325;-56
2021/05/08 03:47:23;;;;;;;5.03;3.77;;;;;;;18.50;57.81;99699.00;2070447;28;20042;-55
2021/05/08 03:48:24;;;;;;;4.67;3.23;;;;;;;18.49;57.85;99697.28;2072664;28;20050;-57
2021/05/08 03:49:25;;;;;;;3.65;3.13;;;;;;;18.49;57.82;99689.09;2068491;28;20038;-56
2021/05/08 03:50:25;;;;;;;3.93;3.23;;;;;;;18.49;57.87;99694.53;2070963;28;20084;-56
2021/05/08 03:51:26;;;;;;;4.13;3.07;;;;;;;18.48;57.82;99696.41;2072492;28;20026;-57
2021/05/08 03:52:26;;;;;;;4.07;2.90;;;;;;;18.49;57.85;99687.22;2072034;28;20021;-56
2021/05/08 03:53:26;;;;;;;3.80;3.00;;;;;;;18.49;57.78;99687.22;2068990;28;20451;-56
2021/05/08 03:54:27;;;;;;;3.90;2.90;;;;;;;18.49;57.68;99697.28;2072866;28;20033;-56
2021/05/08 03:55:27;;;;;;;4.43;3.13;;;;;;;18.49;57.72;99702.72;2073147;28;20085;-56
2021/05/08 03:56:29;;;;;;;4.07;3.00;;;;;;;18.49;57.85;99700.00;2071925;28;20034;-56
2021/05/08 03:57:30;;;;;;;4.03;3.05;;;;;;;18.49;57.80;99705.47;2072205;28;20440;-56
2021/05/08 03:58:31;;;;;;;3.53;2.80;;;;;;;18.49;57.96;99700.84;2072735;28;20048;-56
2021/05/08 03:59:32;;;;;;;3.33;2.70;;;;;;;18.49;57.88;99705.47;2072256;28;20315;-56
2021/05/08 04:00:33;;;;;;;3.57;2.87;;;;;;;18.50;57.75;99697.13;2069720;28;20136;-56
2021/05/08 04:01:34;;;;;;;4.50;3.22;;;;;;;18.50;57.70;99701.75;2072708;28;20463;-56
2021/05/08 04:02:34;;;;;;;3.27;2.70;;;;;;;18.49;57.90;99700.84;2070106;28;20038;-56
2021/05/08 04:03:34;;;;;;;4.77;3.20;;;;;;;18.48;57.76;99699.16;2073280;28;20084;-56
2021/05/08 04:04:35;;;;;;;3.83;3.20;;;;;;;18.50;57.81;99699.00;2071858;28;20053;-56
2021/05/08 04:05:35;;;;;;;4.93;3.27;;;;;;;18.49;57.96;99697.28;2072407;28;20038;-56
2021/05/08 04:06:35;;;;;;;3.67;2.90;;;;;;;18.48;57.94;99698.28;2072422;28;20502;-56
2021/05/08 04:07:36;;;;;;;3.90;3.00;;;;;;;18.47;57.92;99692.00;2072049;28;20045;-56
2021/05/08 04:08:36;;;;;;;4.60;3.50;;;;;;;18.47;57.79;99700.19;2069485;28;20038;-56
2021/05/08 04:09:37;;;;;;;3.67;2.70;;;;;;;18.49;57.65;99700.00;2071934;28;20102;-56
2021/05/08 04:10:38;;;;;;;5.27;3.13;;;;;;;18.49;57.79;99697.28;2072509;28;20030;-56
2021/05/08 04:11:38;;;;;;;4.40;3.20;;;;;;;18.48;57.64;99692.84;2070403;28;20037;-56
2021/05/08 04:12:39;;;;;;;3.23;2.67;;;;;;;18.49;57.62;99700.00;2072434;28;20068;-56
2021/05/08 04:13:39;;;;;;;4.57;3.33;;;;;;;18.49;57.74;99700.00;2069919;28;20030;-56
2021/05/08 04:14:39;;;;;;;4.30;2.80;;;;;;;18.48;57.70;99698.28;2071609;28;20658;-56
2021/05/08 04:15:40;;;;;;;4.20;3.10;;;;;;;18.48;57.62;99698.28;2070301;28;20112;-56
2021/05/08 04:16:41;;;;;;;3.43;2.97;;;;;;;18.47;57.83;99697.44;2071723;28;20111;-56
2021/05/08 04:17:41;;;;;;;2.90;2.50;;;;;;;18.48;57.90;99706.47;2072683;28;20029;-56
2021/05/08 04:18:42;;;;;;;3.60;2.50;;;;;;;18.46;57.92;99698.44;2069974;28;20380;-57
2021/05/08 04:19:42;;;;;;;3.53;2.40;;;;;;;18.48;57.69;99698.28;2070565;28;20499;-56
2021/05/08 04:20:47;;;;;;;3.53;2.63;;;;;;;18.47;57.89;99702.91;2072371;28;20145;-57
2021/05/08 04:21:47;;;;;;;3.45;2.78;;;;;;;18.48;57.85;99703.75;2072319;28;20061;-56
2021/05/08 04:22:48;;;;;;;3.43;2.73;;;;;;;18.49;57.63;99705.47;2072430;28;20503;-56
2021/05/08 04:23:48;;;;;;;4.67;2.90;;;;;;;18.49;57.86;99700.00;2068224;28;20026;-56
2021/05/08 04:24:49;;;;;;;4.83;3.03;;;;;;;18.47;57.84;99702.03;2071319;28;20036;-56
2021/05/08 04:25:49;;;;;;;3.37;2.60;;;;;;;18.47;57.93;99696.56;2072726;28;20088;-56
2021/05/08 04:26:49;;;;;;;4.37;2.90;;;;;;;18.49;57.80;99694.53;2068805;28;20036;-56
2021/05/08 04:27:50;;;;;;;3.83;2.80;;;;;;;18.49;57.92;99700.84;2072567;28;20041;-56
2021/05/08 04:28:50;;;;;;;5.70;3.00;;;;;;;18.48;57.90;99701.88;2071793;28;20056;-56
2021/05/08 04:29:51;;;;;;;4.90;3.07;;;;;;;18.48;57.81;99701.88;2071868;28;20417;-56
2021/05/08 04:30:51;;;;;;;4.03;2.80;;;;;;;18.48;57.93;99703.75;2070185;28;20040;-57
2021/05/08 04:31:52;;;;;;;3.73;2.97;;;;;;;18.48;57.98;99701.03;2072027;28;20427;-56
2021/05/08 04:32:52;;;;;;;4.43;2.70;;;;;;;18.48;57.85;99695.56;2072962;28;20112;-57
2021/05/08 04:33:53;;;;;;;5.33;2.80;;;;;;;18.48;57.98;99703.75;2072230;28;20029;-56
2021/05/08 04:34:53;;;;;;;3.70;2.90;;;;;;;18.47;57.75;99702.03;2072465;28;20041;-56
2021/05/08 04:35:54;;;;;;;4.57;3.10;;;;;;;18.47;57.96;99707.47;2070073;28;20511;-56
2021/05/08 04:36:54;;;;;;;3.87;2.70;;;;;;;18.47;57.79;99696.56;2071964;28;20084;-56
2021/05/08 04:38:00;;;;;;;4.23;2.67;;;;;;;18.46;57.71;99701.16;2071683;28;20427;-56
2021/05/08 04:39:01;;;;;;;3.42;2.50;;;;;;;18.47;57.80;99702.03;2067211;28;20034;-56
2021/05/08 04:40:02;;;;;;;4.23;2.90;;;;;;;18.47;57.71;99707.47;2072681;28;20458;-56
2021/05/08 04:41:03;;;;;;;3.60;2.92;;;;;;;18.47;57.89;99702.03;2070908;28;20032;-56
2021/05/08 04:42:04;;;;;;;3.93;2.80;;;;;;;18.48;57.80;99709.22;2072011;28;20488;-56
2021/05/08 04:43:04;;;;;;;5.43;3.10;;;;;;;18.47;57.94;99697.44;2072364;28;20135;-56
2021/05/08 04:44:05;;;;;;;4.27;2.87;;;;;;;18.47;57.87;99702.03;2070695;28;20053;-56
2021/05/08 04:45:07;;;;;;;3.47;2.97;;;;;;;18.46;57.86;99701.16;2072392;28;20030;-56
2021/05/08 04:46:07;;;;;;;5.05;2.75;;;;;;;18.48;57.82;99709.22;2071775;28;20050;-55
2021/05/08 04:47:12;;;;;;;3.13;2.60;;;;;;;18.47;57.70;99702.03;2072715;28;20072;-56